createdAt,value
2023-05-14T00:01:42.755Z,16.28
2023-05-14T00:04:09.591Z,16.33
2023-05-14T00:06:36.273Z,16.37
2023-05-14T00:09:03.045Z,16.38
2023-05-14T00:11:29.731Z,16.41
2023-05-14T00:13:56.342Z,16.40
2023-05-14T00:16:22.986Z,16.31
2023-05-14T00:18:49.703Z,16.31
2023-05-14T00:21:16.342Z,16.28
2023-05-14T00:23:42.961Z,16.24
2023-05-14T00:26:09.557Z,16.27
2023-05-14T00:28:36.206Z,16.21
2023-05-14T00:31:02.831Z,16.21
2023-05-14T00:33:29.528Z,16.24
2023-05-14T00:35:56.120Z,16.19
2023-05-14T00:38:22.786Z,16.22
2023-05-14T00:40:49.470Z,16.19
2023-05-14T00:43:16.107Z,16.22
2023-05-14T00:45:42.697Z,16.16
2023-05-14T00:50:36.234Z,16.19
2023-05-14T00:53:02.847Z,16.19
2023-05-14T00:55:30.318Z,16.17
2023-05-14T00:57:56.971Z,16.23
2023-05-14T01:00:23.833Z,16.22
2023-05-14T01:02:50.661Z,16.28
2023-05-14T01:05:17.341Z,16.34
2023-05-14T01:07:57.992Z,16.37
2023-05-14T01:10:36.256Z,16.34
2023-05-14T01:13:10.966Z,16.27
2023-05-14T01:15:37.829Z,16.26
2023-05-14T01:18:07.035Z,16.31
2023-05-14T01:20:33.631Z,16.28
2023-05-14T01:23:00.328Z,16.35
2023-05-14T01:25:27.006Z,16.32
2023-05-14T01:28:01.239Z,16.32
2023-05-14T01:30:38.065Z,16.33
2023-05-14T01:33:10.803Z,16.31
2023-05-14T01:35:37.507Z,16.23
2023-05-14T01:38:05.366Z,16.19
2023-05-14T01:40:32.016Z,16.19
2023-05-14T01:42:58.741Z,16.19
2023-05-14T01:45:25.518Z,16.16
2023-05-14T01:47:52.245Z,16.18
2023-05-14T01:50:18.857Z,16.14
2023-05-14T01:52:45.483Z,16.19
2023-05-14T01:55:12.098Z,16.21
2023-05-14T01:57:38.706Z,16.15
2023-05-14T02:00:06.072Z,16.15
2023-05-14T02:02:32.736Z,16.17
2023-05-14T02:04:59.386Z,16.13
2023-05-14T02:07:26.006Z,16.09
2023-05-14T02:09:52.681Z,16.09
2023-05-14T02:12:19.330Z,16.07
2023-05-14T02:14:45.965Z,16.11
2023-05-14T02:17:12.571Z,16.10
2023-05-14T02:19:39.157Z,16.09
2023-05-14T02:22:05.765Z,16.09
2023-05-14T02:24:32.412Z,16.09
2023-05-14T02:26:59.088Z,15.98
2023-05-14T02:29:25.703Z,16.03
2023-05-14T02:31:52.405Z,16.08
2023-05-14T02:34:19.110Z,16.02
2023-05-14T02:36:45.766Z,16.05
2023-05-14T02:39:12.361Z,16.08
2023-05-14T02:41:38.982Z,16.04
2023-05-14T02:44:05.570Z,16.03
2023-05-14T02:46:32.360Z,16.03
2023-05-14T02:48:59.100Z,16.04
2023-05-14T02:51:25.718Z,16.05
2023-05-14T02:53:52.301Z,16.07
2023-05-14T02:56:18.952Z,16.10
2023-05-14T02:58:45.549Z,16.05
2023-05-14T03:01:12.285Z,16.03
2023-05-14T03:03:39.674Z,16.03
2023-05-14T03:06:06.813Z,16.01
2023-05-14T03:08:33.517Z,16.04
2023-05-14T03:11:00.158Z,16.08
2023-05-14T03:13:26.832Z,16.10
2023-05-14T03:15:53.493Z,16.09
2023-05-14T03:18:20.354Z,16.04
2023-05-14T03:20:46.931Z,16.00
2023-05-14T03:23:14.783Z,16.00
2023-05-14T03:25:41.503Z,16.03
2023-05-14T03:28:08.139Z,16.12
2023-05-14T03:30:34.892Z,16.05
2023-05-14T03:33:01.571Z,16.09
2023-05-14T03:35:28.222Z,16.10
2023-05-14T03:37:54.809Z,16.13
2023-05-14T03:40:21.721Z,16.11
2023-05-14T03:42:48.591Z,15.99
2023-05-14T03:45:15.230Z,16.06
2023-05-14T03:47:41.955Z,16.05
2023-05-14T03:50:08.936Z,16.02
2023-05-14T03:52:35.591Z,16.11
2023-05-14T03:55:02.340Z,16.09
2023-05-14T03:57:29.011Z,16.07
2023-05-14T03:59:55.601Z,16.05
2023-05-14T04:02:22.315Z,16.03
2023-05-14T04:04:49.097Z,16.00
2023-05-14T04:07:15.768Z,15.99
2023-05-14T04:09:42.377Z,15.98
2023-05-14T04:12:09.133Z,15.99
2023-05-14T04:14:35.760Z,15.98
2023-05-14T04:17:02.409Z,16.00
2023-05-14T04:19:29.081Z,16.02
2023-05-14T04:21:55.734Z,16.01
2023-05-14T04:24:22.366Z,16.02
2023-05-14T04:26:48.977Z,16.00
2023-05-14T04:29:15.581Z,16.03
2023-05-14T04:31:42.222Z,15.99
2023-05-14T04:34:08.893Z,16.01
2023-05-14T04:36:35.493Z,16.10
2023-05-14T04:39:02.111Z,16.09
2023-05-14T04:41:28.708Z,16.19
2023-05-14T04:43:59.831Z,16.11
2023-05-14T04:46:26.464Z,16.14
2023-05-14T04:48:53.064Z,16.09
2023-05-14T04:51:19.646Z,16.21
2023-05-14T04:53:46.230Z,16.18
2023-05-14T04:56:12.836Z,16.22
2023-05-14T04:58:39.432Z,16.24
2023-05-14T05:01:06.149Z,16.26
2023-05-14T05:03:32.914Z,16.26
2023-05-14T05:05:59.557Z,16.26
2023-05-14T05:08:26.379Z,16.34
2023-05-14T05:10:53.068Z,16.37
2023-05-14T05:13:19.719Z,16.42
2023-05-14T05:15:46.384Z,16.46
2023-05-14T05:18:13.105Z,16.45
2023-05-14T05:20:39.746Z,16.41
2023-05-14T05:23:06.378Z,16.30
2023-05-14T05:25:32.975Z,16.28
2023-05-14T05:27:59.565Z,16.32
2023-05-14T05:30:26.328Z,16.33
2023-05-14T05:32:53.089Z,16.43
2023-05-14T05:35:19.845Z,16.45
2023-05-14T05:37:46.472Z,16.41
2023-05-14T05:40:13.070Z,16.34
2023-05-14T05:42:40.241Z,16.44
2023-05-14T05:45:07.398Z,16.46
2023-05-14T05:47:34.005Z,16.53
2023-05-14T05:50:00.780Z,16.54
2023-05-14T05:52:27.540Z,16.61
2023-05-14T05:54:54.138Z,16.68
2023-05-14T05:57:20.824Z,16.74
2023-05-14T05:59:47.459Z,16.78
2023-05-14T06:02:14.180Z,16.70
2023-05-14T06:04:40.845Z,16.71
2023-05-14T06:07:07.502Z,16.82
2023-05-14T06:09:34.171Z,16.82
2023-05-14T06:12:00.770Z,16.91
2023-05-14T06:14:27.415Z,16.93
2023-05-14T06:16:54.133Z,16.99
2023-05-14T06:19:20.883Z,16.77
2023-05-14T06:21:47.557Z,16.81
2023-05-14T06:24:14.238Z,16.81
2023-05-14T06:26:40.851Z,16.90
2023-05-14T06:29:07.449Z,16.93
2023-05-14T06:31:34.061Z,16.95
2023-05-14T06:34:00.734Z,17.01
2023-05-14T06:36:27.321Z,16.93
2023-05-14T06:38:53.953Z,16.99
2023-05-14T06:41:20.568Z,17.03
2023-05-14T06:43:47.186Z,17.09
2023-05-14T06:46:13.777Z,17.19
2023-05-14T06:48:40.445Z,17.20
2023-05-14T06:51:07.085Z,17.25
2023-05-14T06:53:33.754Z,17.25
2023-05-14T06:56:00.407Z,17.17
2023-05-14T06:58:26.995Z,17.20
2023-05-14T07:00:53.600Z,17.32
2023-05-14T07:03:20.272Z,17.36
2023-05-14T07:05:46.864Z,17.42
2023-05-14T07:08:13.553Z,17.41
2023-05-14T07:10:40.143Z,17.46
2023-05-14T07:13:06.785Z,17.54
2023-05-14T07:15:33.393Z,17.65
2023-05-14T07:18:00.180Z,17.74
2023-05-14T07:20:27.166Z,17.82
2023-05-14T07:22:53.927Z,17.88
2023-05-14T07:25:20.526Z,17.91
2023-05-14T07:27:47.113Z,17.97
2023-05-14T07:30:13.800Z,18.01
2023-05-14T07:32:41.023Z,18.10
2023-05-14T07:35:08.618Z,17.94
2023-05-14T07:37:35.249Z,17.99
2023-05-14T07:40:01.891Z,18.16
2023-05-14T07:42:35.800Z,18.30
2023-05-14T07:45:04.469Z,18.41
2023-05-14T07:47:31.190Z,18.57
2023-05-14T07:49:57.936Z,18.77
2023-05-14T07:52:24.658Z,18.77
2023-05-14T07:54:51.330Z,19.05
2023-05-14T07:57:18.716Z,19.19
2023-05-14T07:59:45.394Z,19.31
2023-05-14T08:02:12.053Z,19.34
2023-05-14T08:04:39.443Z,19.40
2023-05-14T08:07:06.187Z,19.36
2023-05-14T08:09:32.812Z,19.43
2023-05-14T08:11:59.449Z,19.53
2023-05-14T08:14:26.089Z,19.51
2023-05-14T08:16:52.812Z,19.61
2023-05-14T08:19:19.682Z,19.70
2023-05-14T08:21:46.404Z,19.61
2023-05-14T08:24:13.077Z,19.70
2023-05-14T08:26:39.683Z,19.69
2023-05-14T08:29:06.893Z,19.67
2023-05-14T08:31:34.577Z,19.71
2023-05-14T08:34:01.449Z,19.67
2023-05-14T08:36:28.082Z,19.73
2023-05-14T08:38:54.740Z,19.75
2023-05-14T08:41:21.417Z,19.78
2023-05-14T08:44:00.179Z,19.84
2023-05-14T08:46:27.199Z,19.94
2023-05-14T08:49:01.460Z,20.24
2023-05-14T08:51:28.077Z,20.30
2023-05-14T08:53:54.995Z,20.58
2023-05-14T08:56:21.660Z,20.55
2023-05-14T08:58:48.457Z,20.49
2023-05-14T09:01:15.312Z,20.50
2023-05-14T09:03:41.943Z,20.44
2023-05-14T09:06:08.751Z,20.62
2023-05-14T09:08:35.649Z,20.72
2023-05-14T09:11:04.380Z,20.81
2023-05-14T09:13:31.088Z,20.79
2023-05-14T09:15:57.872Z,20.80
2023-05-14T09:18:25.224Z,20.93
2023-05-14T09:20:52.104Z,20.70
2023-05-14T09:23:18.773Z,20.79
2023-05-14T09:25:45.440Z,20.93
2023-05-14T09:28:12.104Z,20.99
2023-05-14T09:30:38.733Z,21.11
2023-05-14T09:33:05.379Z,21.31
2023-05-14T09:35:32.153Z,21.24
2023-05-14T09:37:58.776Z,21.11
2023-05-14T09:40:25.650Z,20.96
2023-05-14T09:42:52.437Z,20.98
2023-05-14T09:45:19.109Z,21.02
2023-05-14T09:47:45.863Z,20.93
2023-05-14T09:50:12.682Z,20.95
2023-05-14T09:52:39.351Z,20.78
2023-05-14T09:55:06.473Z,20.85
2023-05-14T09:57:33.127Z,21.09
2023-05-14T09:59:59.758Z,21.04
2023-05-14T10:02:30.282Z,20.90
2023-05-14T10:04:57.805Z,20.72
2023-05-14T10:07:27.378Z,20.57
2023-05-14T10:09:59.321Z,20.51
2023-05-14T10:12:26.202Z,20.62
2023-05-14T10:14:52.803Z,20.53
2023-05-14T10:17:22.378Z,20.36
2023-05-14T10:19:53.240Z,20.45
2023-05-14T10:22:22.901Z,20.73
2023-05-14T10:24:50.209Z,20.87
2023-05-14T10:27:16.948Z,21.23
2023-05-14T10:29:43.600Z,20.87
2023-05-14T10:32:10.255Z,20.89
2023-05-14T10:34:43.200Z,21.01
2023-05-14T10:37:19.417Z,20.80
2023-05-14T10:39:55.002Z,20.66
2023-05-14T10:42:34.944Z,20.67
2023-05-14T10:45:05.616Z,20.86
2023-05-14T10:47:32.292Z,21.26
2023-05-14T10:49:59.905Z,21.29
2023-05-14T10:52:26.594Z,21.48
2023-05-14T10:54:57.118Z,21.44
2023-05-14T10:57:28.701Z,21.63
2023-05-14T10:59:56.395Z,22.07
2023-05-14T11:02:30.131Z,22.01
2023-05-14T11:05:04.082Z,21.69
2023-05-14T11:07:31.998Z,21.09
2023-05-14T11:10:15.035Z,21.08
2023-05-14T11:12:43.427Z,21.15
2023-05-14T11:15:20.669Z,21.20
2023-05-14T11:17:47.817Z,21.32
2023-05-14T11:20:14.537Z,21.54
2023-05-14T11:22:41.683Z,21.58
2023-05-14T11:25:08.826Z,21.44
2023-05-14T11:27:39.038Z,21.28
2023-05-14T11:30:06.272Z,21.23
2023-05-14T11:32:33.034Z,21.19
2023-05-14T11:34:59.687Z,21.28
2023-05-14T11:37:26.315Z,21.15
2023-05-14T11:39:54.185Z,21.15
2023-05-14T11:42:21.310Z,21.07
2023-05-14T11:44:49.295Z,21.03
2023-05-14T11:47:17.056Z,20.85
2023-05-14T11:49:43.728Z,20.78
2023-05-14T11:52:10.493Z,20.67
2023-05-14T11:54:37.169Z,20.62
2023-05-14T11:57:08.514Z,20.50
2023-05-14T11:59:35.153Z,20.57
2023-05-14T12:02:01.980Z,20.36
2023-05-14T12:04:28.649Z,20.44
2023-05-14T12:06:57.337Z,20.62
2023-05-14T12:09:23.984Z,20.86
2023-05-14T12:11:50.994Z,21.14
2023-05-14T12:14:19.971Z,21.38
2023-05-14T12:16:46.808Z,21.54
2023-05-14T12:19:17.227Z,21.77
2023-05-14T12:21:44.251Z,21.80
2023-05-14T12:24:12.266Z,21.69
2023-05-14T12:26:38.929Z,21.54
2023-05-14T12:29:05.580Z,21.39
2023-05-14T12:31:33.277Z,21.17
2023-05-14T12:33:59.994Z,21.03
2023-05-14T12:36:26.665Z,21.10
2023-05-14T12:38:59.940Z,21.25
2023-05-14T12:41:26.611Z,21.41
2023-05-14T12:43:53.261Z,21.55
2023-05-14T12:46:19.979Z,21.62
2023-05-14T12:48:46.741Z,21.76
2023-05-14T12:51:13.410Z,21.94
2023-05-14T12:53:40.123Z,21.99
2023-05-14T12:56:06.829Z,22.11
2023-05-14T12:58:33.571Z,22.17
2023-05-14T13:01:00.232Z,22.31
2023-05-14T13:03:26.850Z,22.41
2023-05-14T13:05:53.758Z,22.55
2023-05-14T13:08:23.806Z,22.54
2023-05-14T13:10:53.916Z,22.75
2023-05-14T13:13:20.616Z,22.77
2023-05-14T13:15:47.242Z,22.63
2023-05-14T13:18:14.270Z,22.18
2023-05-14T13:20:43.102Z,22.36
2023-05-14T13:23:09.968Z,22.58
2023-05-14T13:25:36.623Z,22.67
2023-05-14T13:28:03.289Z,22.81
2023-05-14T13:30:29.970Z,22.75
2023-05-14T13:32:56.613Z,22.64
2023-05-14T13:35:23.361Z,22.63
2023-05-14T13:37:50.178Z,22.62
2023-05-14T13:40:16.810Z,22.44
2023-05-14T13:42:44.537Z,22.21
2023-05-14T13:45:11.341Z,22.08
2023-05-14T13:47:38.551Z,21.93
2023-05-14T13:50:07.926Z,21.97
2023-05-14T13:52:34.709Z,21.96
2023-05-14T13:55:01.373Z,22.04
2023-05-14T13:57:28.066Z,21.92
2023-05-14T13:59:54.761Z,21.90
2023-05-14T14:02:21.499Z,21.85
2023-05-14T14:04:48.241Z,21.94
2023-05-14T14:07:14.921Z,21.97
2023-05-14T14:09:41.770Z,22.02
2023-05-14T14:12:09.094Z,22.03
2023-05-14T14:14:35.786Z,21.89
2023-05-14T14:17:02.522Z,21.89
2023-05-14T14:19:29.872Z,21.93
2023-05-14T14:21:56.537Z,21.94
2023-05-14T14:24:23.300Z,22.04
2023-05-14T14:26:51.783Z,22.09
2023-05-14T14:29:18.498Z,22.08
2023-05-14T14:31:45.190Z,22.23
2023-05-14T14:34:11.970Z,22.31
2023-05-14T14:36:38.561Z,22.14
2023-05-14T14:39:05.194Z,21.58
2023-05-14T14:41:31.838Z,21.55
2023-05-14T14:43:58.484Z,21.74
2023-05-14T14:46:25.141Z,21.74
2023-05-14T14:48:51.889Z,22.18
2023-05-14T14:51:18.571Z,22.19
2023-05-14T14:53:45.250Z,22.33
2023-05-14T14:56:11.929Z,22.37
2023-05-14T14:58:38.571Z,22.32
2023-05-14T15:01:05.346Z,22.36
2023-05-14T15:03:32.176Z,22.38
2023-05-14T15:05:58.997Z,23.54
2023-05-14T15:08:26.222Z,24.08
2023-05-14T15:10:52.944Z,24.54
2023-05-14T15:13:19.628Z,24.18
2023-05-14T15:15:46.342Z,24.92
2023-05-14T15:18:13.010Z,26.29
2023-05-14T15:20:39.768Z,26.68
2023-05-14T15:23:06.411Z,25.45
2023-05-14T15:25:33.060Z,24.72
2023-05-14T15:27:59.721Z,24.19
2023-05-14T15:30:26.391Z,23.54
2023-05-14T15:32:53.083Z,23.45
2023-05-14T15:35:19.988Z,23.87
2023-05-14T15:37:46.647Z,24.03
2023-05-14T15:40:13.287Z,24.75
2023-05-14T15:42:41.112Z,24.07
2023-05-14T15:45:08.541Z,23.73
2023-05-14T15:47:35.958Z,23.53
2023-05-14T15:50:02.653Z,23.03
2023-05-14T15:52:29.279Z,22.69
2023-05-14T15:54:56.001Z,22.50
2023-05-14T15:57:23.192Z,22.31
2023-05-14T15:59:49.964Z,22.04
2023-05-14T16:02:16.574Z,21.88
2023-05-14T16:04:43.178Z,21.68
2023-05-14T16:07:09.970Z,21.61
2023-05-14T16:09:36.869Z,21.53
2023-05-14T16:12:04.831Z,21.40
2023-05-14T16:14:34.252Z,21.28
2023-05-14T16:17:00.945Z,21.28
2023-05-14T16:19:27.836Z,22.08
2023-05-14T16:21:54.484Z,24.19
2023-05-14T16:24:21.128Z,25.77
2023-05-14T16:26:47.756Z,24.90
2023-05-14T16:29:14.347Z,23.75
2023-05-14T16:31:40.972Z,24.73
2023-05-14T16:34:07.591Z,26.51
2023-05-14T16:36:34.213Z,24.30
2023-05-14T16:41:30.300Z,22.92
2023-05-14T16:43:56.942Z,22.37
2023-05-14T16:46:23.634Z,21.96
2023-05-14T16:48:50.292Z,21.28
2023-05-14T16:51:16.961Z,21.05
2023-05-14T16:53:43.578Z,20.84
2023-05-14T16:56:10.211Z,20.73
2023-05-14T16:58:36.861Z,20.81
2023-05-14T17:01:03.517Z,20.72
2023-05-14T17:03:30.128Z,20.43
2023-05-14T17:05:56.714Z,20.14
2023-05-14T17:08:23.326Z,19.78
2023-05-14T17:10:49.948Z,19.63
2023-05-14T17:13:16.574Z,19.53
2023-05-14T17:15:43.276Z,19.46
2023-05-14T17:18:09.963Z,19.26
2023-05-14T17:20:36.640Z,19.27
2023-05-14T17:23:03.255Z,19.33
2023-05-14T17:25:29.900Z,19.46
2023-05-14T17:27:56.558Z,19.48
2023-05-14T17:30:23.180Z,19.27
2023-05-14T17:32:51.103Z,19.06
2023-05-14T17:35:18.003Z,19.14
2023-05-14T17:37:44.683Z,19.11
2023-05-14T17:40:11.757Z,19.17
2023-05-14T17:42:38.399Z,18.82
2023-05-14T17:45:05.498Z,18.98
2023-05-14T17:47:32.239Z,19.12
2023-05-14T17:49:58.936Z,19.13
2023-05-14T17:52:25.619Z,19.09
2023-05-14T17:54:52.282Z,18.67
2023-05-14T17:57:18.939Z,18.71
2023-05-14T17:59:45.616Z,18.80
2023-05-14T18:02:12.260Z,18.78
2023-05-14T18:04:38.869Z,18.78
2023-05-14T18:07:05.470Z,18.76
2023-05-14T18:09:32.141Z,18.73
2023-05-14T18:11:58.779Z,18.84
2023-05-14T18:14:25.440Z,18.75
2023-05-14T18:16:52.151Z,18.87
2023-05-14T18:19:19.484Z,18.89
2023-05-14T18:21:46.096Z,19.02
2023-05-14T18:24:12.728Z,18.84
2023-05-14T18:26:39.429Z,18.95
2023-05-14T18:29:06.082Z,18.93
2023-05-14T18:31:32.764Z,18.82
2023-05-14T18:33:59.406Z,18.50
2023-05-14T18:36:26.030Z,18.39
2023-05-14T18:38:52.696Z,18.21
2023-05-14T18:41:19.325Z,18.15
2023-05-14T18:43:45.964Z,17.88
2023-05-14T18:46:12.657Z,17.86
2023-05-14T18:48:39.866Z,17.93
2023-05-14T18:51:06.535Z,17.89
2023-05-14T18:53:33.144Z,17.92
2023-05-14T18:55:59.928Z,17.74
2023-05-14T18:58:26.604Z,17.42
2023-05-14T19:00:53.295Z,17.31
2023-05-14T19:03:20.288Z,17.32
2023-05-14T19:05:46.998Z,17.34
2023-05-14T19:08:14.068Z,17.21
2023-05-14T19:10:40.692Z,16.77
2023-05-14T19:13:07.338Z,16.82
2023-05-14T19:15:33.976Z,16.67
2023-05-14T19:18:00.749Z,16.46
2023-05-14T19:20:27.490Z,16.49
2023-05-14T19:22:54.092Z,16.26
2023-05-14T19:25:20.746Z,16.29
2023-05-14T19:27:47.341Z,16.28
2023-05-14T19:30:13.982Z,16.38
2023-05-14T19:32:40.821Z,16.31
2023-05-14T19:35:07.647Z,16.39
2023-05-14T19:37:34.276Z,16.49
2023-05-14T19:40:00.859Z,16.53
2023-05-14T19:42:27.469Z,16.59
2023-05-14T19:44:54.059Z,16.64
2023-05-14T19:47:20.645Z,16.75
2023-05-14T19:49:48.526Z,16.83
2023-05-14T19:52:15.193Z,16.78
2023-05-14T19:54:41.840Z,16.84
2023-05-14T19:57:09.208Z,16.66
2023-05-14T19:59:35.842Z,16.63
2023-05-14T20:02:02.542Z,16.48
2023-05-14T20:04:29.207Z,16.53
2023-05-14T20:06:55.855Z,16.58
2023-05-14T20:09:22.692Z,16.59
2023-05-14T20:11:49.319Z,16.54
2023-05-14T20:14:16.002Z,16.53
2023-05-14T20:16:42.656Z,16.54
2023-05-14T20:19:09.338Z,16.67
2023-05-14T20:21:36.193Z,16.62
2023-05-14T20:24:02.848Z,16.73
2023-05-14T20:26:29.497Z,16.75
2023-05-14T20:28:56.169Z,16.81
2023-05-14T20:31:22.940Z,16.82
2023-05-14T20:33:49.663Z,16.81
2023-05-14T20:36:16.328Z,16.68
2023-05-14T20:38:42.993Z,16.77
2023-05-14T20:41:09.643Z,16.76
2023-05-14T20:43:36.353Z,16.72
2023-05-14T20:46:02.972Z,16.81
2023-05-14T20:48:29.645Z,16.84
2023-05-14T20:50:56.283Z,16.76
2023-05-14T20:53:22.910Z,16.73
2023-05-14T20:55:49.527Z,16.65
2023-05-14T20:58:16.166Z,16.65
2023-05-14T21:00:42.781Z,16.68
2023-05-14T21:03:09.813Z,16.80
2023-05-14T21:05:36.696Z,16.81
2023-05-14T21:08:03.350Z,16.84
2023-05-14T21:10:29.982Z,16.84
2023-05-14T21:12:56.691Z,16.84
2023-05-14T21:15:23.683Z,16.80
2023-05-14T21:17:50.656Z,16.74
2023-05-14T21:20:17.310Z,16.81
2023-05-14T21:22:43.964Z,16.81
2023-05-14T21:25:10.736Z,16.77
2023-05-14T21:27:37.402Z,16.72
2023-05-14T21:30:04.314Z,16.62
2023-05-14T21:32:31.023Z,16.57
2023-05-14T21:34:57.616Z,16.54
2023-05-14T21:37:24.234Z,16.49
2023-05-14T21:39:50.942Z,16.47
2023-05-14T21:42:17.538Z,16.48
2023-05-14T21:44:44.170Z,16.50
2023-05-14T21:47:10.821Z,16.53
2023-05-14T21:49:37.413Z,16.54
2023-05-14T21:52:04.222Z,16.50
2023-05-14T21:54:30.868Z,16.50
2023-05-14T21:56:57.560Z,16.48
2023-05-14T21:59:24.201Z,16.53
2023-05-14T22:02:06.272Z,16.49
2023-05-14T22:04:33.883Z,16.56
2023-05-14T22:07:00.519Z,16.59
2023-05-14T22:09:27.450Z,16.58
2023-05-14T22:11:54.118Z,16.49
2023-05-14T22:14:20.725Z,16.45
2023-05-14T22:16:47.406Z,16.43
2023-05-14T22:19:15.869Z,16.42
2023-05-14T22:21:42.563Z,16.39
2023-05-14T22:24:09.168Z,16.40
2023-05-14T22:26:35.816Z,16.43
2023-05-14T22:29:02.447Z,16.51
2023-05-14T22:31:29.359Z,16.55
2023-05-14T22:33:56.099Z,16.56
2023-05-14T22:36:22.744Z,16.58
2023-05-14T22:38:49.429Z,16.69
2023-05-14T22:41:16.073Z,16.73
2023-05-14T22:43:42.715Z,16.74
2023-05-14T22:46:09.356Z,16.76
2023-05-14T22:48:35.982Z,16.65
2023-05-14T22:51:02.575Z,16.73
2023-05-14T22:53:29.177Z,16.76
2023-05-14T22:55:55.809Z,16.75
2023-05-14T22:58:22.428Z,16.82
2023-05-14T23:00:49.034Z,16.73
2023-05-14T23:03:15.685Z,16.75
2023-05-14T23:05:42.332Z,16.77
2023-05-14T23:08:08.970Z,16.72
2023-05-14T23:10:35.665Z,16.70
2023-05-14T23:13:03.627Z,16.67
2023-05-14T23:15:30.263Z,16.69
2023-05-14T23:17:56.953Z,16.64
2023-05-14T23:20:23.615Z,16.62
2023-05-14T23:22:50.137Z,16.63
2023-05-14T23:25:16.749Z,16.70
2023-05-14T23:27:43.372Z,16.71
2023-05-14T23:30:10.471Z,16.47
2023-05-14T23:32:37.070Z,16.31
2023-05-14T23:35:03.911Z,16.36
2023-05-14T23:37:30.597Z,16.44
2023-05-14T23:39:57.199Z,16.52
2023-05-14T23:42:23.804Z,16.58
2023-05-14T23:44:50.428Z,16.57
2023-05-14T23:47:16.974Z,16.54
2023-05-14T23:49:43.525Z,16.45
2023-05-14T23:52:10.061Z,16.36
2023-05-14T23:54:36.694Z,16.36
2023-05-14T23:57:03.335Z,16.30
2023-05-14T23:59:29.945Z,16.28
